createdAt,value
2023-02-18T00:00:06.752Z,90.19
2023-02-18T00:05:09.256Z,90.92
2023-02-18T00:10:15.796Z,90.70
2023-02-18T00:15:18.326Z,90.29
2023-02-18T00:20:20.864Z,89.99
2023-02-18T00:25:23.458Z,90.90
2023-02-18T00:30:29.259Z,91.29
2023-02-18T00:35:31.770Z,90.60
2023-02-18T00:40:37.271Z,90.44
2023-02-18T00:45:39.785Z,90.35
2023-02-18T00:50:42.265Z,90.53
2023-02-18T00:55:47.976Z,90.70
2023-02-18T01:00:51.246Z,90.23
2023-02-18T01:05:54.261Z,90.68
2023-02-18T01:10:59.208Z,90.15
2023-02-18T01:16:02.186Z,90.16
2023-02-18T01:21:08.737Z,90.49
2023-02-18T01:26:12.421Z,91.11
2023-02-18T01:31:17.260Z,91.12
2023-02-18T01:36:19.922Z,91.00
2023-02-18T01:41:22.382Z,90.46
2023-02-18T01:46:24.957Z,90.27
2023-02-18T01:51:33.681Z,90.95
2023-02-18T01:56:53.267Z,91.55
2023-02-18T02:01:57.015Z,90.95
2023-02-18T02:06:59.693Z,90.90
2023-02-18T02:12:39.159Z,90.86
2023-02-18T02:18:09.118Z,90.08
2023-02-18T02:23:30.171Z,89.78
2023-02-18T02:28:54.072Z,89.45
2023-02-18T02:34:38.355Z,90.05
2023-02-18T02:39:43.492Z,90.92
2023-02-18T02:44:56.672Z,91.67
2023-02-18T02:50:10.543Z,91.60
2023-02-18T02:55:16.327Z,91.68
2023-02-18T03:00:55.296Z,91.24
2023-02-18T03:06:23.115Z,91.24
2023-02-18T03:11:32.689Z,91.23
2023-02-18T03:17:07.420Z,90.89
2023-02-18T03:22:17.501Z,90.92
2023-02-18T03:27:33.718Z,91.85
2023-02-18T03:32:36.409Z,92.97
2023-02-18T03:38:02.766Z,93.63
2023-02-18T03:43:05.527Z,94.68
2023-02-18T03:48:08.346Z,95.66
2023-02-18T03:53:10.801Z,96.46
2023-02-18T03:58:13.202Z,97.36
2023-02-18T04:03:15.783Z,97.40
2023-02-18T04:08:18.253Z,96.88
2023-02-18T04:13:20.689Z,96.18
2023-02-18T04:18:23.779Z,95.60
2023-02-18T04:23:26.519Z,96.06
2023-02-18T04:28:29.170Z,96.88
2023-02-18T04:33:31.799Z,98.09
2023-02-18T04:38:34.229Z,97.82
2023-02-18T04:43:36.883Z,97.65
2023-02-18T04:48:39.333Z,97.42
2023-02-18T04:53:41.770Z,96.95
2023-02-18T04:58:44.221Z,97.22
2023-02-18T05:03:46.703Z,96.72
2023-02-18T05:08:49.259Z,97.15
2023-02-18T05:13:51.698Z,96.60
2023-02-18T05:18:54.162Z,97.37
2023-02-18T05:23:57.144Z,98.32
2023-02-18T05:28:59.837Z,99.58
2023-02-18T05:34:02.268Z,100.00
2023-02-18T05:39:04.728Z,100.00
2023-02-18T05:44:25.753Z,100.00
2023-02-18T05:49:29.871Z,100.00
2023-02-18T05:54:32.786Z,100.00
2023-02-18T05:59:35.270Z,100.00
2023-02-18T06:04:37.745Z,100.00
2023-02-18T06:09:40.353Z,100.00
2023-02-18T06:14:43.031Z,100.00
2023-02-18T06:19:46.141Z,100.00
2023-02-18T06:24:48.532Z,100.00
2023-02-18T06:29:50.893Z,100.00
2023-02-18T06:34:53.524Z,100.00
2023-02-18T06:39:56.015Z,100.00
2023-02-18T06:44:58.820Z,100.00
2023-02-18T06:50:01.438Z,100.00
2023-02-18T06:55:05.355Z,100.00
2023-02-18T07:00:08.514Z,100.00
2023-02-18T07:05:10.986Z,99.27
2023-02-18T07:10:13.374Z,98.40
2023-02-18T07:15:16.156Z,97.92
2023-02-18T07:20:19.542Z,98.00
2023-02-18T07:25:24.050Z,97.54
2023-02-18T07:30:26.813Z,97.30
2023-02-18T07:35:29.561Z,96.76
2023-02-18T07:40:32.019Z,96.49
2023-02-18T07:45:34.790Z,95.92
2023-02-18T07:50:43.997Z,95.42
2023-02-18T07:55:49.398Z,95.24
2023-02-18T08:00:54.291Z,94.93
2023-02-18T08:05:57.626Z,94.25
2023-02-18T08:11:13.299Z,94.11
2023-02-18T08:16:22.033Z,93.31
2023-02-18T08:21:26.098Z,92.64
2023-02-18T08:26:29.149Z,90.21
2023-02-18T08:31:32.210Z,86.84
2023-02-18T08:36:35.940Z,84.81
2023-02-18T08:41:38.385Z,83.27
2023-02-18T08:46:41.083Z,82.95
2023-02-18T08:51:43.744Z,81.75
2023-02-18T08:56:46.474Z,80.70
2023-02-18T09:01:49.428Z,79.62
2023-02-18T09:06:52.111Z,80.04
2023-02-18T09:11:54.564Z,79.38
2023-02-18T09:16:58.735Z,77.64
2023-02-18T09:22:01.358Z,77.58
2023-02-18T09:27:04.381Z,76.84
2023-02-18T09:32:08.752Z,76.08
2023-02-18T09:37:11.885Z,75.79
2023-02-18T09:42:18.222Z,75.69
2023-02-18T09:47:26.881Z,75.20
2023-02-18T09:52:36.106Z,77.03
2023-02-18T09:57:44.425Z,76.83
2023-02-18T10:03:27.000Z,75.68
2023-02-18T10:08:51.197Z,75.53
2023-02-18T10:13:54.827Z,74.18
2023-02-18T10:19:06.111Z,75.05
2023-02-18T10:24:14.300Z,73.87
2023-02-18T10:29:21.541Z,71.31
2023-02-18T10:34:54.143Z,72.23
2023-02-18T10:40:17.835Z,71.71
2023-02-18T10:50:39.878Z,69.37
2023-02-18T10:55:45.163Z,69.78
2023-02-18T11:00:47.915Z,69.32
2023-02-18T11:05:56.637Z,69.42
2023-02-18T11:11:10.275Z,69.52
2023-02-18T11:16:14.840Z,68.41
2023-02-18T11:21:37.812Z,65.88
2023-02-18T11:26:40.961Z,65.33
2023-02-18T11:31:48.159Z,61.70
2023-02-18T11:36:52.453Z,59.80
2023-02-18T11:42:06.515Z,59.99
2023-02-18T11:47:14.810Z,58.94
2023-02-18T11:52:27.327Z,58.40
2023-02-18T11:57:30.655Z,57.95
2023-02-18T12:02:40.500Z,58.72
2023-02-18T12:08:07.815Z,57.20
2023-02-18T12:13:39.694Z,54.34
2023-02-18T12:19:21.332Z,53.63
2023-02-18T12:24:56.082Z,56.47
2023-02-18T12:30:32.892Z,56.30
2023-02-18T12:36:08.345Z,54.64
2023-02-18T12:41:45.106Z,56.07
2023-02-18T12:46:56.195Z,57.51
2023-02-18T12:52:15.258Z,57.09
2023-02-18T12:57:39.194Z,57.26
2023-02-18T13:02:54.284Z,57.25
2023-02-18T13:08:07.373Z,57.82
2023-02-18T13:13:17.470Z,58.61
2023-02-18T13:18:50.767Z,59.42
2023-02-18T13:24:01.388Z,59.46
2023-02-18T13:29:21.287Z,59.83
2023-02-18T13:35:00.280Z,59.43
2023-02-18T13:40:04.136Z,59.42
2023-02-18T13:45:22.979Z,59.11
2023-02-18T13:50:39.286Z,59.40
2023-02-18T13:56:16.347Z,57.65
2023-02-18T14:01:45.696Z,58.07
2023-02-18T14:07:25.224Z,57.81
2023-02-18T14:12:41.027Z,59.31
2023-02-18T14:17:47.936Z,60.40
2023-02-18T14:22:52.945Z,60.59
2023-02-18T14:27:55.297Z,60.23
2023-02-18T14:33:01.577Z,60.66
2023-02-18T14:38:23.274Z,61.04
2023-02-18T14:44:01.936Z,61.43
2023-02-18T14:49:28.855Z,62.26
2023-02-18T14:54:32.176Z,62.25
2023-02-18T14:59:44.143Z,62.57
2023-02-18T15:04:47.532Z,62.77
2023-02-18T15:09:54.808Z,62.76
2023-02-18T15:15:04.113Z,63.21
2023-02-18T15:20:08.193Z,63.50
2023-02-18T15:25:13.627Z,63.79
2023-02-18T15:30:31.484Z,64.06
2023-02-18T15:35:34.032Z,63.96
2023-02-18T15:40:40.521Z,64.23
2023-02-18T15:45:46.435Z,64.71
2023-02-18T15:51:11.251Z,64.32
2023-02-18T15:56:40.629Z,64.38
2023-02-18T16:01:47.272Z,66.05
2023-02-18T16:06:52.000Z,66.43
2023-02-18T16:12:02.982Z,67.76
2023-02-18T16:17:10.185Z,68.14
2023-02-18T16:22:51.911Z,68.40
2023-02-18T16:28:03.887Z,68.88
2023-02-18T16:33:06.368Z,69.03
2023-02-18T16:38:15.348Z,69.70
2023-02-18T16:43:20.745Z,69.74
2023-02-18T16:48:34.242Z,70.32
2023-02-18T16:53:36.778Z,70.34
2023-02-18T16:58:39.212Z,70.57
2023-02-18T17:03:41.733Z,70.68
2023-02-18T17:08:44.389Z,70.46
2023-02-18T17:13:48.305Z,70.60
2023-02-18T17:18:50.934Z,70.91
2023-02-18T17:23:53.608Z,71.05
2023-02-18T17:28:59.012Z,71.46
2023-02-18T17:34:06.876Z,71.14
2023-02-18T17:39:14.403Z,72.15
2023-02-18T17:44:22.462Z,72.66
2023-02-18T17:49:25.025Z,72.54
2023-02-18T17:54:28.356Z,74.88
2023-02-18T17:59:31.163Z,75.83
2023-02-18T18:04:33.586Z,74.91
2023-02-18T18:09:36.053Z,73.71
2023-02-18T18:14:38.470Z,74.13
2023-02-18T18:19:41.285Z,74.72
2023-02-18T18:24:43.711Z,75.51
2023-02-18T18:29:45.840Z,75.28
2023-02-18T18:34:49.124Z,75.65
2023-02-18T18:39:51.385Z,75.60
2023-02-18T18:44:53.515Z,75.19
2023-02-18T18:49:55.555Z,74.94
2023-02-18T18:54:57.908Z,74.33
2023-02-18T19:00:00.478Z,75.64
2023-02-18T19:05:04.377Z,75.92
2023-02-18T19:10:07.152Z,75.77
2023-02-18T19:15:21.096Z,75.74
2023-02-18T19:20:29.067Z,74.88
2023-02-18T19:25:32.218Z,74.33
2023-02-18T19:30:36.885Z,75.18
2023-02-18T19:35:41.113Z,75.74
2023-02-18T19:40:45.849Z,75.59
2023-02-18T19:45:47.959Z,76.48
2023-02-18T19:50:50.150Z,77.59
2023-02-18T19:56:06.829Z,78.08
2023-02-18T20:01:16.886Z,79.30
2023-02-18T20:06:21.094Z,83.66
2023-02-18T20:11:23.223Z,82.99
2023-02-18T20:16:25.316Z,86.88
2023-02-18T20:21:28.269Z,90.02
2023-02-18T20:26:31.150Z,95.91
2023-02-18T20:31:34.131Z,100.00
2023-02-18T20:36:36.861Z,100.00
2023-02-18T20:41:39.963Z,100.00
2023-02-18T20:46:43.727Z,100.00
2023-02-18T20:51:46.430Z,100.00
2023-02-18T20:56:50.677Z,98.25
2023-02-18T21:01:53.405Z,97.88
2023-02-18T21:06:55.877Z,97.57
2023-02-18T21:11:59.237Z,96.32
2023-02-18T21:17:03.795Z,95.71
2023-02-18T21:22:06.293Z,97.27
2023-02-18T21:27:08.771Z,97.01
2023-02-18T21:32:11.417Z,95.33
2023-02-18T21:37:14.029Z,95.05
2023-02-18T21:42:16.504Z,92.72
2023-02-18T21:47:18.988Z,90.53
2023-02-18T21:52:21.583Z,90.10
2023-02-18T21:57:24.881Z,90.84
2023-02-18T22:02:32.426Z,91.51
2023-02-18T22:07:35.298Z,90.86
2023-02-18T22:12:38.127Z,91.36
2023-02-18T22:17:41.059Z,96.86
2023-02-18T22:22:43.666Z,96.11
2023-02-18T22:27:46.755Z,94.89
2023-02-18T22:32:49.263Z,94.36
2023-02-18T22:37:51.700Z,95.17
2023-02-18T22:42:55.112Z,96.54
2023-02-18T22:47:57.732Z,97.88
2023-02-18T22:53:00.460Z,100.00
2023-02-18T22:58:03.272Z,98.54
2023-02-18T23:03:05.839Z,97.53
2023-02-18T23:08:08.311Z,98.42
2023-02-18T23:13:10.845Z,98.52
2023-02-18T23:18:15.268Z,97.81
2023-02-18T23:23:18.007Z,98.62
2023-02-18T23:28:20.660Z,96.72
2023-02-18T23:33:23.147Z,97.70
2023-02-18T23:38:25.599Z,97.04
2023-02-18T23:43:31.591Z,99.75
2023-02-18T23:48:38.493Z,96.72
2023-02-18T23:53:41.607Z,96.91
2023-02-18T23:58:47.545Z,94.26
